createdAt,value
2022-11-26T00:02:50.864Z,12.23
2022-11-26T00:05:57.424Z,24.92
2022-11-26T00:09:00.649Z,14.25
2022-11-26T00:12:31.181Z,16.00
2022-11-26T00:15:33.541Z,22.20
2022-11-26T00:18:35.549Z,10.37
2022-11-26T00:21:40.399Z,9.43
2022-11-26T00:24:42.467Z,13.07
2022-11-26T00:27:44.673Z,12.87
2022-11-26T00:30:46.939Z,15.97
2022-11-26T00:33:50.127Z,18.87
2022-11-26T00:36:52.352Z,18.03
2022-11-26T00:39:55.711Z,10.47
2022-11-26T00:43:01.678Z,13.63
2022-11-26T00:46:04.370Z,15.07
2022-11-26T00:49:06.412Z,14.73
2022-11-26T00:52:34.138Z,24.40
2022-11-26T00:55:41.671Z,12.47
2022-11-26T00:58:44.271Z,18.80
2022-11-26T01:01:46.406Z,16.47
2022-11-26T01:04:48.502Z,20.13
2022-11-26T01:07:51.928Z,18.27
2022-11-26T01:10:54.125Z,17.67
2022-11-26T01:13:56.361Z,26.17
2022-11-26T01:16:59.013Z,15.37
2022-11-26T01:20:01.257Z,21.93
2022-11-26T01:23:03.348Z,18.57
2022-11-26T01:26:06.718Z,15.17
2022-11-26T01:29:19.291Z,20.87
2022-11-26T01:32:24.153Z,17.40
2022-11-26T01:35:30.203Z,20.07
2022-11-26T01:38:32.156Z,18.67
2022-11-26T01:41:55.599Z,19.73
2022-11-26T01:44:57.609Z,22.60
2022-11-26T01:47:59.745Z,14.57
2022-11-26T01:51:12.450Z,18.73
2022-11-26T01:54:15.482Z,17.63
2022-11-26T01:57:21.945Z,17.70
2022-11-26T02:00:24.125Z,19.47
2022-11-26T02:03:28.243Z,20.03
2022-11-26T02:06:34.985Z,18.75
2022-11-26T02:09:37.215Z,15.00
2022-11-26T02:12:44.537Z,17.47
2022-11-26T02:16:09.281Z,16.77
2022-11-26T02:19:51.308Z,17.20
2022-11-26T02:23:28.707Z,16.40
2022-11-26T02:26:49.195Z,12.27
2022-11-26T02:30:12.311Z,12.97
2022-11-26T02:33:18.327Z,11.60
2022-11-26T02:36:29.967Z,11.90
2022-11-26T02:39:32.389Z,9.77
2022-11-26T02:42:36.004Z,9.93
2022-11-26T02:45:41.050Z,12.90
2022-11-26T02:48:47.333Z,12.87
2022-11-26T02:51:54.783Z,12.07
2022-11-26T02:54:57.493Z,13.33
2022-11-26T02:58:00.340Z,11.40
2022-11-26T03:01:07.840Z,19.40
2022-11-26T03:04:15.456Z,19.27
2022-11-26T03:07:18.744Z,14.80
2022-11-26T03:10:27.159Z,11.97
2022-11-26T03:13:29.172Z,19.30
2022-11-26T03:16:31.589Z,9.50
2022-11-26T03:19:33.716Z,12.03
2022-11-26T03:22:36.056Z,15.70
2022-11-26T03:25:38.203Z,10.87
2022-11-26T03:28:40.206Z,12.37
2022-11-26T03:31:42.497Z,10.03
2022-11-26T03:34:44.583Z,13.93
2022-11-26T03:37:46.597Z,11.70
2022-11-26T03:41:00.680Z,11.13
2022-11-26T03:44:02.796Z,12.90
2022-11-26T03:47:04.894Z,8.77
2022-11-26T03:50:07.712Z,9.80
2022-11-26T03:53:09.850Z,9.97
2022-11-26T03:56:11.961Z,11.13
2022-11-26T03:59:13.957Z,15.03
2022-11-26T04:02:15.990Z,8.20
2022-11-26T04:05:18.194Z,14.67
2022-11-26T04:08:20.132Z,12.73
2022-11-26T04:11:22.142Z,13.33
2022-11-26T04:14:26.238Z,9.87
2022-11-26T04:17:28.417Z,12.40
2022-11-26T04:20:30.438Z,16.07
2022-11-26T04:23:32.433Z,15.93
2022-11-26T04:26:34.499Z,10.47
2022-11-26T04:29:37.566Z,15.13
2022-11-26T04:32:40.097Z,15.10
2022-11-26T04:35:43.773Z,14.37
2022-11-26T04:38:45.798Z,14.47
2022-11-26T04:41:47.941Z,15.47
2022-11-26T04:44:49.998Z,16.40
2022-11-26T04:47:52.147Z,20.43
2022-11-26T04:50:54.159Z,18.07
2022-11-26T04:53:56.536Z,14.90
2022-11-26T04:56:59.701Z,12.10
2022-11-26T05:00:02.379Z,12.43
2022-11-26T05:03:04.507Z,12.47
2022-11-26T05:06:07.277Z,13.77
2022-11-26T05:09:09.432Z,14.10
2022-11-26T05:12:12.851Z,17.03
2022-11-26T05:15:27.125Z,17.53
2022-11-26T05:18:29.813Z,21.77
2022-11-26T05:21:32.017Z,8.17
2022-11-26T05:24:34.052Z,9.40
2022-11-26T05:27:36.655Z,12.47
2022-11-26T05:30:38.795Z,14.00
2022-11-26T05:33:41.213Z,10.40
2022-11-26T05:36:43.307Z,10.43
2022-11-26T05:39:46.487Z,14.30
2022-11-26T05:42:48.707Z,7.93
2022-11-26T05:45:50.781Z,10.30
2022-11-26T05:48:53.029Z,8.07
2022-11-26T05:51:55.290Z,7.10
2022-11-26T05:54:57.338Z,7.33
2022-11-26T05:57:59.348Z,9.40
2022-11-26T06:01:01.509Z,10.00
2022-11-26T06:04:03.751Z,9.90
2022-11-26T06:07:05.808Z,10.60
2022-11-26T06:10:08.889Z,16.37
2022-11-26T06:13:12.095Z,8.87
2022-11-26T06:16:15.313Z,10.50
2022-11-26T06:19:17.615Z,9.63
2022-11-26T06:22:19.774Z,6.73
2022-11-26T06:25:22.807Z,9.00
2022-11-26T06:28:24.919Z,9.90
2022-11-26T06:31:27.112Z,6.77
2022-11-26T06:34:29.412Z,5.23
2022-11-26T06:37:32.576Z,10.47
2022-11-26T06:40:34.734Z,13.83
2022-11-26T06:43:37.208Z,10.30
2022-11-26T06:46:47.817Z,8.83
2022-11-26T06:49:55.135Z,6.93
2022-11-26T06:52:57.186Z,7.83
2022-11-26T06:56:07.127Z,15.20
2022-11-26T06:59:09.243Z,11.13
2022-11-26T07:02:11.982Z,8.63
2022-11-26T07:05:14.133Z,8.67
2022-11-26T07:08:17.122Z,11.33
2022-11-26T07:11:19.649Z,8.87
2022-11-26T07:14:22.752Z,6.13
2022-11-26T07:17:28.940Z,5.60
2022-11-26T07:20:31.244Z,6.40
2022-11-26T07:23:34.656Z,8.43
2022-11-26T07:26:36.763Z,8.03
2022-11-26T07:29:38.886Z,5.57
2022-11-26T07:32:41.003Z,9.50
2022-11-26T07:35:43.390Z,10.13
2022-11-26T07:38:46.213Z,24.33
2022-11-26T07:41:48.357Z,10.40
2022-11-26T07:44:51.015Z,9.80
2022-11-26T07:47:53.016Z,9.57
2022-11-26T07:50:55.003Z,9.70
2022-11-26T07:53:59.335Z,11.07
2022-11-26T07:57:01.339Z,16.00
2022-11-26T08:00:04.595Z,7.47
2022-11-26T08:03:06.710Z,10.13
2022-11-26T08:06:10.575Z,8.40
2022-11-26T08:09:12.528Z,9.77
2022-11-26T08:12:15.212Z,8.00
2022-11-26T08:15:17.481Z,9.57
2022-11-26T08:18:22.787Z,14.65
2022-11-26T08:21:25.145Z,6.95
2022-11-26T08:24:27.219Z,7.47
2022-11-26T08:27:32.886Z,6.47
2022-11-26T08:30:34.871Z,8.68
2022-11-26T08:33:37.568Z,8.50
2022-11-26T08:36:40.952Z,9.05
2022-11-26T08:39:42.925Z,7.60
2022-11-26T08:42:44.900Z,5.70
2022-11-26T08:45:57.186Z,7.75
2022-11-26T08:48:59.450Z,8.90
2022-11-26T08:52:01.551Z,6.00
2022-11-26T08:55:04.461Z,5.13
2022-11-26T08:58:06.603Z,7.40
2022-11-26T09:01:16.222Z,5.30
2022-11-26T09:04:18.347Z,11.15
2022-11-26T09:07:20.595Z,9.15
2022-11-26T09:10:22.695Z,6.63
2022-11-26T09:13:24.775Z,8.65
2022-11-26T09:16:27.067Z,7.80
2022-11-26T09:19:29.446Z,6.05
2022-11-26T09:22:31.521Z,3.90
2022-11-26T09:25:33.657Z,8.88
2022-11-26T09:28:35.805Z,13.15
2022-11-26T09:31:46.011Z,7.88
2022-11-26T09:35:00.406Z,11.70
2022-11-26T09:38:02.871Z,8.35
2022-11-26T09:41:42.389Z,4.93
2022-11-26T09:44:54.455Z,5.18
2022-11-26T09:47:56.764Z,9.88
2022-11-26T09:51:09.420Z,5.25
2022-11-26T09:54:18.412Z,5.05
2022-11-26T09:57:23.412Z,8.32
2022-11-26T10:00:39.451Z,4.50
2022-11-26T10:03:42.468Z,6.43
2022-11-26T10:06:50.462Z,5.30
2022-11-26T10:10:05.268Z,4.57
2022-11-26T10:13:41.251Z,8.57
2022-11-26T10:17:17.173Z,4.57
2022-11-26T10:20:34.250Z,6.60
2022-11-26T10:23:50.823Z,9.55
2022-11-26T10:26:54.305Z,7.38
2022-11-26T10:30:02.027Z,5.57
2022-11-26T10:33:07.492Z,5.82
2022-11-26T10:36:22.640Z,4.57
2022-11-26T10:39:24.788Z,6.93
2022-11-26T10:42:40.015Z,5.20
2022-11-26T10:46:02.488Z,6.68
2022-11-26T10:49:31.021Z,4.38
2022-11-26T10:52:34.379Z,7.72
2022-11-26T10:55:41.899Z,3.85
2022-11-26T10:58:45.531Z,3.33
2022-11-26T11:01:51.540Z,3.50
2022-11-26T11:04:59.155Z,12.90
2022-11-26T11:08:01.387Z,4.93
2022-11-26T11:11:05.134Z,6.35
2022-11-26T11:14:42.229Z,6.50
2022-11-26T11:17:46.867Z,5.78
2022-11-26T11:21:14.594Z,8.63
2022-11-26T11:24:29.703Z,5.30
2022-11-26T11:27:43.708Z,6.03
2022-11-26T11:30:46.480Z,4.70
2022-11-26T11:33:50.079Z,8.85
2022-11-26T11:37:18.708Z,4.15
2022-11-26T11:40:25.644Z,7.72
2022-11-26T11:43:28.072Z,4.22
2022-11-26T11:46:54.825Z,7.85
2022-11-26T11:50:30.725Z,5.20
2022-11-26T11:53:47.957Z,7.53
2022-11-26T11:57:01.302Z,4.88
2022-11-26T12:00:18.807Z,5.43
2022-11-26T12:03:49.867Z,5.47
2022-11-26T12:06:54.812Z,8.02
2022-11-26T12:10:32.496Z,5.25
2022-11-26T12:13:45.658Z,9.82
2022-11-26T12:16:53.187Z,6.38
2022-11-26T12:20:04.499Z,8.57
2022-11-26T12:23:24.380Z,9.38
2022-11-26T12:26:32.884Z,8.60
2022-11-26T12:29:53.336Z,10.27
2022-11-26T12:33:02.634Z,6.15
2022-11-26T12:36:24.478Z,6.28
2022-11-26T12:39:49.198Z,3.45
2022-11-26T12:43:04.083Z,5.90
2022-11-26T12:46:13.703Z,8.57
2022-11-26T12:49:37.486Z,6.30
2022-11-26T12:53:10.097Z,12.88
2022-11-26T12:56:31.829Z,9.90
2022-11-26T13:00:15.193Z,4.75
2022-11-26T13:03:23.140Z,10.73
2022-11-26T13:06:37.002Z,8.25
2022-11-26T13:10:05.301Z,5.37
2022-11-26T13:13:49.387Z,5.47
2022-11-26T13:17:02.622Z,7.18
2022-11-26T13:20:35.067Z,8.82
2022-11-26T13:23:53.979Z,3.78
2022-11-26T13:27:14.279Z,6.10
2022-11-26T13:30:23.966Z,6.60
2022-11-26T13:33:50.951Z,18.05
2022-11-26T13:37:17.745Z,6.13
2022-11-26T13:40:25.996Z,14.05
2022-11-26T13:43:39.999Z,11.60
2022-11-26T13:46:47.142Z,6.00
2022-11-26T13:50:02.563Z,12.90
2022-11-26T13:53:12.539Z,8.90
2022-11-26T13:56:16.294Z,7.97
2022-11-26T13:59:27.979Z,7.07
2022-11-26T14:02:33.882Z,8.23
2022-11-26T14:06:02.391Z,9.23
2022-11-26T14:09:27.146Z,4.38
2022-11-26T14:13:03.370Z,9.35
2022-11-26T14:16:08.458Z,6.40
2022-11-26T14:19:10.860Z,8.13
2022-11-26T14:22:21.961Z,8.48
2022-11-26T14:25:53.389Z,10.15
2022-11-26T14:29:07.343Z,5.40
2022-11-26T14:32:16.931Z,5.87
2022-11-26T14:35:33.901Z,4.82
2022-11-26T14:38:36.559Z,7.47
2022-11-26T14:41:41.608Z,9.27
2022-11-26T14:44:44.022Z,6.90
2022-11-26T14:47:51.441Z,6.63
2022-11-26T14:50:55.087Z,5.85
2022-11-26T14:53:58.683Z,11.70
2022-11-26T14:57:22.111Z,9.07
2022-11-26T15:00:30.175Z,12.05
2022-11-26T15:03:32.741Z,3.83
2022-11-26T15:06:43.063Z,21.13
2022-11-26T15:09:45.058Z,7.57
2022-11-26T15:12:51.265Z,7.15
2022-11-26T15:15:55.796Z,15.85
2022-11-26T15:18:58.884Z,6.28
2022-11-26T15:22:04.891Z,5.60
2022-11-26T15:25:21.395Z,6.78
2022-11-26T15:28:24.480Z,6.57
2022-11-26T15:31:42.995Z,6.15
2022-11-26T15:34:46.178Z,12.40
2022-11-26T15:37:48.354Z,7.00
2022-11-26T15:40:55.733Z,7.03
2022-11-26T15:43:59.416Z,6.22
2022-11-26T15:47:02.508Z,8.38
2022-11-26T15:50:05.267Z,7.07
2022-11-26T15:53:14.197Z,6.60
2022-11-26T15:56:19.989Z,17.98
2022-11-26T15:59:24.932Z,7.85
2022-11-26T16:02:29.360Z,4.22
2022-11-26T16:05:38.877Z,3.55
2022-11-26T16:09:07.924Z,3.35
2022-11-26T16:12:29.206Z,7.60
2022-11-26T16:15:31.516Z,5.47
2022-11-26T16:18:47.744Z,8.25
2022-11-26T16:21:51.973Z,6.28
2022-11-26T16:25:07.317Z,10.85
2022-11-26T16:28:14.183Z,4.10
2022-11-26T16:31:17.554Z,9.93
2022-11-26T16:34:20.309Z,13.33
2022-11-26T16:37:23.522Z,3.20
2022-11-26T16:40:26.315Z,15.30
2022-11-26T16:43:29.819Z,17.33
2022-11-26T16:46:34.641Z,8.02
2022-11-26T16:49:36.886Z,12.30
2022-11-26T16:52:39.313Z,12.18
2022-11-26T16:55:41.445Z,9.93
2022-11-26T16:58:44.126Z,10.68
2022-11-26T17:01:46.488Z,15.40
2022-11-26T17:04:49.060Z,11.10
2022-11-26T17:07:57.430Z,24.58
2022-11-26T17:10:59.756Z,20.13
2022-11-26T17:14:01.826Z,7.93
2022-11-26T17:17:04.193Z,6.13
2022-11-26T17:20:22.412Z,34.67
2022-11-26T17:23:24.500Z,11.30
2022-11-26T17:26:26.703Z,7.07
2022-11-26T17:29:28.866Z,10.33
2022-11-26T17:32:30.883Z,14.33
2022-11-26T17:35:33.047Z,9.38
2022-11-26T17:38:35.028Z,9.47
2022-11-26T17:41:37.290Z,6.33
2022-11-26T17:44:39.426Z,9.20
2022-11-26T17:47:41.983Z,6.63
2022-11-26T17:50:44.080Z,7.13
2022-11-26T17:53:46.612Z,6.97
2022-11-26T17:56:48.694Z,6.23
2022-11-26T17:59:50.960Z,16.43
2022-11-26T18:02:53.034Z,11.80
2022-11-26T18:05:55.197Z,11.63
2022-11-26T18:08:57.295Z,10.87
2022-11-26T18:12:00.649Z,10.50
2022-11-26T18:15:04.276Z,10.80
2022-11-26T18:18:07.547Z,9.60
2022-11-26T18:21:10.421Z,10.00
2022-11-26T18:24:13.642Z,8.07
2022-11-26T18:27:15.830Z,8.93
2022-11-26T18:30:18.372Z,5.07
2022-11-26T18:33:20.409Z,3.87
2022-11-26T18:36:22.459Z,11.03
2022-11-26T18:39:24.661Z,10.00
2022-11-26T18:42:37.187Z,6.87
2022-11-26T18:45:42.464Z,10.40
2022-11-26T18:48:47.169Z,14.95
2022-11-26T18:54:51.441Z,11.93
2022-11-26T18:57:53.610Z,9.43
2022-11-26T19:00:58.725Z,14.37
2022-11-26T19:04:01.015Z,18.30
2022-11-26T19:07:03.007Z,19.27
2022-11-26T19:10:05.511Z,17.33
2022-11-26T19:13:07.661Z,20.07
2022-11-26T19:16:16.541Z,17.00
2022-11-26T19:19:19.663Z,20.33
2022-11-26T19:22:21.684Z,19.60
2022-11-26T19:25:23.673Z,23.27
2022-11-26T19:28:26.983Z,20.90
2022-11-26T19:31:30.670Z,18.80
2022-11-26T19:34:32.829Z,31.13
2022-11-26T19:37:34.910Z,22.20
2022-11-26T19:40:39.498Z,16.67
2022-11-26T19:43:42.587Z,19.13
2022-11-26T19:46:48.299Z,21.73
2022-11-26T19:49:50.657Z,12.67
2022-11-26T19:52:54.415Z,21.63
2022-11-26T19:56:02.480Z,21.07
2022-11-26T19:59:05.039Z,35.87
2022-11-26T20:02:08.669Z,31.33
2022-11-26T20:05:10.856Z,28.30
2022-11-26T20:08:13.190Z,21.90
2022-11-26T20:11:17.236Z,24.87
2022-11-26T20:14:19.437Z,22.20
2022-11-26T20:17:21.547Z,20.03
2022-11-26T20:20:24.520Z,22.10
2022-11-26T20:23:27.352Z,27.87
2022-11-26T20:26:32.981Z,21.07
2022-11-26T20:29:34.982Z,15.07
2022-11-26T20:32:38.257Z,15.97
2022-11-26T20:35:41.342Z,24.97
2022-11-26T20:38:43.830Z,29.40
2022-11-26T20:41:46.344Z,25.47
2022-11-26T20:44:48.516Z,27.70
2022-11-26T20:47:50.607Z,34.87
2022-11-26T20:50:52.655Z,24.17
2022-11-26T20:53:59.034Z,20.80
2022-11-26T20:57:01.454Z,31.80
2022-11-26T21:00:08.104Z,25.17
2022-11-26T21:03:10.485Z,28.53
2022-11-26T21:06:14.387Z,22.63
2022-11-26T21:09:16.798Z,27.93
2022-11-26T21:12:18.919Z,28.17
2022-11-26T21:15:23.175Z,29.73
2022-11-26T21:18:25.175Z,25.93
2022-11-26T21:21:28.672Z,24.13
2022-11-26T21:24:30.660Z,29.77
2022-11-26T21:27:33.858Z,26.43
2022-11-26T21:30:36.547Z,31.13
2022-11-26T21:33:38.777Z,32.80
2022-11-26T21:36:44.875Z,29.50
2022-11-26T21:39:47.415Z,23.67
2022-11-26T21:42:49.602Z,29.43
2022-11-26T21:45:51.700Z,25.30
2022-11-26T21:48:55.328Z,29.23
2022-11-26T21:51:58.447Z,33.60
2022-11-26T21:55:03.566Z,24.07
2022-11-26T21:58:05.968Z,28.87
2022-11-26T22:01:13.983Z,31.67
2022-11-26T22:04:19.503Z,28.57
2022-11-26T22:07:21.853Z,30.63
2022-11-26T22:10:24.774Z,22.33
2022-11-26T22:13:28.122Z,28.77
2022-11-26T22:16:31.302Z,26.53
2022-11-26T22:19:33.463Z,38.53
2022-11-26T22:22:35.471Z,34.73
2022-11-26T22:25:45.843Z,21.23
2022-11-26T22:28:52.637Z,25.37
2022-11-26T22:31:55.096Z,32.77
2022-11-26T22:34:57.260Z,26.20
2022-11-26T22:38:04.038Z,25.20
2022-11-26T22:41:09.032Z,30.43
2022-11-26T22:44:12.447Z,24.20
2022-11-26T22:47:17.576Z,26.47
2022-11-26T22:50:19.966Z,29.77
2022-11-26T22:53:23.565Z,29.33
2022-11-26T22:56:26.573Z,27.40
2022-11-26T22:59:28.844Z,31.23
2022-11-26T23:02:30.988Z,26.00
2022-11-26T23:05:37.776Z,31.47
2022-11-26T23:08:40.868Z,24.50
2022-11-26T23:11:43.792Z,30.77
2022-11-26T23:14:46.027Z,25.47
2022-11-26T23:17:48.043Z,20.77
2022-11-26T23:20:50.096Z,23.00
2022-11-26T23:23:52.913Z,21.53
2022-11-26T23:26:55.052Z,21.80
2022-11-26T23:29:57.025Z,26.47
2022-11-26T23:32:59.402Z,35.80
2022-11-26T23:36:02.049Z,28.47
2022-11-26T23:39:06.127Z,23.77
2022-11-26T23:42:08.175Z,16.08
2022-11-26T23:45:11.022Z,12.20
2022-11-26T23:48:13.055Z,12.60
2022-11-26T23:51:23.871Z,16.67
2022-11-26T23:54:25.944Z,15.03
2022-11-26T23:57:27.996Z,17.43
